地図

経路データ

SID SEASON NUMBER BASIN SUBBASIN NAME ISO_TIME NATURE LAT LON WMO_WIND WMO_PRES WMO_AGENCY TRACK_TYPE DIST2LAND LANDFALL IFLAG USA_AGENCY USA_ATCF_ID USA_LAT USA_LON USA_RECORD USA_STATUS USA_WIND USA_PRES USA_SSHS USA_R34_NE USA_R34_SE USA_R34_SW USA_R34_NW USA_R50_NE USA_R50_SE USA_R50_SW USA_R50_NW USA_R64_NE USA_R64_SE USA_R64_SW USA_R64_NW USA_POCI USA_ROCI USA_RMW USA_EYE TOKYO_LAT TOKYO_LON TOKYO_GRADE TOKYO_WIND TOKYO_PRES TOKYO_R50_DIR TOKYO_R50_LONG TOKYO_R50_SHORT TOKYO_R30_DIR TOKYO_R30_LONG TOKYO_R30_SHORT TOKYO_LAND CMA_LAT CMA_LON CMA_CAT CMA_WIND CMA_PRES HKO_LAT HKO_LON HKO_CAT HKO_WIND HKO_PRES NEWDELHI_LAT NEWDELHI_LON NEWDELHI_GRADE NEWDELHI_WIND NEWDELHI_PRES NEWDELHI_CI NEWDELHI_DP NEWDELHI_POCI REUNION_LAT REUNION_LON REUNION_TYPE REUNION_WIND REUNION_PRES REUNION_TNUM REUNION_CI REUNION_RMW REUNION_R34_NE REUNION_R34_SE REUNION_R34_SW REUNION_R34_NW REUNION_R50_NE REUNION_R50_SE REUNION_R50_SW REUNION_R50_NW REUNION_R64_NE REUNION_R64_SE REUNION_R64_SW REUNION_R64_NW BOM_LAT BOM_LON BOM_TYPE BOM_WIND BOM_PRES BOM_TNUM BOM_CI BOM_RMW BOM_R34_NE BOM_R34_SE BOM_R34_SW BOM_R34_NW BOM_R50_NE BOM_R50_SE BOM_R50_SW BOM_R50_NW BOM_R64_NE BOM_R64_SE BOM_R64_SW BOM_R64_NW BOM_ROCI BOM_POCI BOM_EYE BOM_POS_METHOD BOM_PRES_METHOD NADI_LAT NADI_LON NADI_CAT NADI_WIND NADI_PRES WELLINGTON_LAT WELLINGTON_LON WELLINGTON_WIND WELLINGTON_PRES DS824_LAT DS824_LON DS824_STAGE DS824_WIND DS824_PRES TD9636_LAT TD9636_LON TD9636_STAGE TD9636_WIND TD9636_PRES TD9635_LAT TD9635_LON TD9635_WIND TD9635_PRES TD9635_ROCI NEUMANN_LAT NEUMANN_LON NEUMANN_CLASS NEUMANN_WIND NEUMANN_PRES MLC_LAT MLC_LON MLC_CLASS MLC_WIND MLC_PRES USA_GUST BOM_GUST BOM_GUST_PER REUNION_GUST REUNION_GUST_PER USA_SEAHGT USA_SEARAD_NE USA_SEARAD_SE USA_SEARAD_SW USA_SEARAD_NW STORM_SPEED STORM_DIR
1978075S14084 1978 24 SI MM WINNIE 1978-03-16 00:00:00 TS -13.6000 83.8000 25 1003 bom main 2130 2130 O_____O__OO___ jtwc_sh SH271978 -13.6000 83.8000 25 -1 -13.6000 83.8000 20 25 1003 2.00000 -13.6000 83.8000 TC 25 1003 -13.6000 83.8000 1 25 1 87
1978075S14084 1978 24 SI MM WINNIE 1978-03-16 03:00:00 TS -13.5980 83.8384 25 1002 bom main 2130 2122 P_____O__PP___ SH271978 -13.5875 83.8525 27 -1 -13.6000 83.8000 20 25 1002 2.00000 -13.5900 83.8525 TC 27 1002 -13.6250 83.8344 1 26 1 96
1978075S14084 1978 24 SI MM WINNIE 1978-03-16 06:00:00 TS -13.6094 83.9016 25 1001 bom main 2122 2122 O_____O__OP_O_ jtwc_sh SH271978 -13.6000 83.9000 30 -1 -13.6000 83.9000 20 25 1001 2.00000 -13.6000 83.9000 TC 30 1001 -13.6500 83.8750 1 27 -13.6000 84.0000 TC 25 1001 1 123
1978075S14084 1978 24 SI MM WINNIE 1978-03-16 09:00:00 TS -13.6620 83.9422 25 1000 bom main 2129 2120 P_____O__PP_P_ SH271978 -13.6500 83.9425 30 -1 -13.7000 83.9000 20 25 1000 2.00000 -13.6425 83.9425 TC 30 1000 -13.6750 83.9281 1 28 -13.6475 84.0525 TC 27 1000 1 131
1978075S14084 1978 24 SI MM WINNIE 1978-03-16 12:00:00 TS -13.7000 84.0130 25 1000 bom main 2120 2112 O_____O__OO_O_ jtwc_sh SH271978 -13.7000 84.0000 30 -1 -13.7000 84.0000 20 25 1000 2.00000 -13.7000 84.0000 TC 30 1000 -13.7000 84.0000 1 30 -13.7000 84.1000 TC 30 1000 2 112
1978075S14084 1978 24 SI MM WINNIE 1978-03-16 15:00:00 TS -13.7233 84.1023 25 1000 bom main 2112 2103 P_____O__PP_P_ SH271978 -13.7000 84.0925 30 -1 -13.7000 84.1000 20 25 1000 2.00000 -13.7575 84.0925 TC 30 1000 -13.7250 84.0937 1 30 -13.7575 84.1425 TC 30 1000 2 108
1978075S14084 1978 24 SI MM WINNIE 1978-03-16 18:00:00 TS -13.7583 84.2000 25 1000 bom main 2110 2102 O_____O__OP_O_ jtwc_sh SH271978 -13.7000 84.2000 30 -1 -13.8000 84.2000 20 25 1000 2.00000 -13.8000 84.2000 TC 30 1000 -13.7500 84.2000 1 30 -13.8000 84.2000 TC 30 1000 2 107
1978075S14084 1978 24 SI MM WINNIE 1978-03-16 21:00:00 TS -13.7817 84.3035 30 999 bom main 2102 2093 P_____O__PP_P_ SH271978 -13.7500 84.3075 30 -1 -13.8000 84.3000 20 30 999 2.50000 -13.8075 84.3075 TC 30 999 -13.7750 84.3062 1 30 -13.8075 84.2925 TC 30 999 2 102
1978075S14084 1978 24 SI MM WINNIE 1978-03-17 00:00:00 TS -13.8000 84.4000 30 999 bom main 2093 2085 O_____O__OO_O_ jtwc_sh SH271978 -13.8000 84.4000 30 -1 -13.8000 84.4000 20 30 999 2.50000 -13.8000 84.4000 TC 30 999 -13.8000 84.4000 1 30 -13.8000 84.4000 TC 30 999 1 98
1978075S14084 1978 24 SI MM WINNIE 1978-03-17 03:00:00 TS -13.8017 84.4561 30 998 bom main 2085 2085 P_____O__PP_P_ SH271978 -13.8000 84.4575 32 -1 -13.8000 84.4000 20 30 998 2.50000 -13.7925 84.4575 TC 32 997 -13.8250 84.4563 1 32 -13.7925 84.5075 TC 32 998 1 94
1978075S14084 1978 24 SI MM WINNIE 1978-03-17 06:00:00 TS -13.8083 84.5167 35 996 bom main 2085 2077 O_____O__OP_O_ jtwc_sh SH271978 -13.8000 84.5000 35 0 -13.8000 84.5000 30 35 996 3.00000 -13.8000 84.5000 TC 35 996 -13.8499 84.5000 1 35 -13.8000 84.6000 TC 35 997 1 118
1978075S14084 1978 24 SI MM WINNIE 1978-03-17 09:00:00 TS -13.8600 84.5715 40 994 bom main 2084 2084 P_____O__PP_P_ SH271978 -13.8425 84.5425 37 0 -13.9000 84.6000 30 40 994 3.00000 -13.8500 84.5425 TC 37 994 -13.8750 84.5438 1 37 -13.8500 84.6575 TC 37 995 1 134
1978075S14084 1978 24 SI MM WINNIE 1978-03-17 12:00:00 TS -13.9000 84.6167 45 993 bom main 2084 2075 O_____O__OO_O_ jtwc_sh SH271978 -13.9000 84.6000 40 0 -13.9000 84.6000 30 45 993 3.00000 -13.9000 84.6000 TC 40 993 -13.9000 84.6000 2 40 -13.9000 84.7000 TC 40 994 1 118
1978075S14084 1978 24 SI MM WINNIE 1978-03-17 15:00:00 TS -13.9267 84.6989 45 993 bom main 2075 2067 P_____O__PP_P_ SH271978 -13.9575 84.6925 40 0 -13.9000 84.7000 30 45 993 3.00000 -13.9000 84.6925 TC 42 992 -13.9453 84.6734 2 41 -13.9000 84.7425 TC 42 993 2 106
1978075S14084 1978 24 SI MM WINNIE 1978-03-17 18:00:00 TS -13.9479 84.7937 45 992 bom main 2067 2066 O_____O__OP_O_ jtwc_sh SH271978 -14.0000 84.8000 40 0 -13.9000 84.8000 30 45 992 3.00000 -13.9000 84.8000 TC 45 992 -13.9874 84.7624 2 42 -13.9000 84.8000 TC 45 992 2 110
1978075S14084 1978 24 SI MM WINNIE 1978-03-17 21:00:00 TS -13.9951 84.8888 45 991 bom main 2066 2058 P_____O__PP_P_ SH271978 -14.0225 84.8925 42 0 -14.0000 84.9000 30 45 991 3.00000 -13.9575 84.8925 TC 45 991 -14.0109 84.8702 2 43 -13.9575 84.8850 TC 45 991 2 104
1978075S14084 1978 24 SI MM WINNIE 1978-03-18 00:00:00 TS -14.0000 85.0000 50 990 bom main 2058 2042 O_____O__OO_O_ jtwc_sh SH271978 -14.0000 85.0000 45 0 -14.0000 85.0000 30 50 990 3.50000 3.50000 -14.0000 85.0000 TC 45 990 -14.0000 85.0000 2 45 -14.0000 85.0000 TC 45 990 2 76
1978075S14084 1978 24 SI MM WINNIE 1978-03-18 03:00:00 TS -13.9364 85.1316 50 990 bom main 2042 2026 P_____O__PP_P_ SH271978 -13.9150 85.1350 45 0 -13.9000 85.1000 30 50 990 3.50000 -13.9800 85.1350 TC 47 989 -13.9359 85.1495 2 46 -13.9725 85.1350 TC 47 989 3 64
1978075S14084 1978 24 SI MM WINNIE 1978-03-18 06:00:00 TS -13.8563 85.3033 50 989 bom main 2026 1995 O_____O__OP_O_ jtwc_sh SH271978 -13.8000 85.3000 45 0 -13.9000 85.3000 30 50 989 3.50000 -13.9000 85.3000 TC 50 989 -13.8375 85.3201 2 47 -13.9000 85.3000 TC 50 989 4 60
1978075S14084 1978 24 SI MM WINNIE 1978-03-18 09:00:00 TS -13.7309 85.4985 50 987 bom main 1995 1972 P_____O__PP_P_ SH271978 -13.7000 85.5000 47 0 -13.7000 85.5000 30 50 987 3.50000 -13.7575 85.4925 TC 50 988 -13.7203 85.5057 2 48 -13.8075 85.4925 TC 50 988 5 58
1978075S14084 1978 24 SI MM WINNIE 1978-03-18 12:00:00 TS -13.6167 85.7000 50 987 bom main 1972 1948 O_____O__OO_O_ jtwc_sh SH271978 -13.6000 85.7000 50 0 -13.6000 85.7000 30 50 987 3.50000 -13.6000 85.7000 TC 50 987 -13.6000 85.7000 2 50 -13.7000 85.7000 TC 50 988 4 59
1978075S14084 1978 24 SI MM WINNIE 1978-03-18 15:00:00 TS -13.5140 85.8769 50 987 bom main 1948 1924 P_____O__PP_P_ SH271978 -13.4999 85.8425 50 0 -13.5000 85.9000 30 50 987 3.50000 -13.4925 85.9000 TC 50 986 -13.4918 85.8765 2 51 -13.6000 85.9000 TC 52 987 4 60
1978075S14084 1978 24 SI MM WINNIE 1978-03-18 18:00:00 TS -13.4141 86.0604 55 986 bom main 1924 1909 O_____O__OP_O_ jtwc_sh SH271978 -13.4000 86.0000 50 0 -13.4000 86.1000 30 55 986 4.00000 -13.4000 86.1000 TC 50 986 -13.3848 86.0625 2 52 -13.5000 86.1000 TC 55 986 4 58
1978075S14084 1978 24 SI MM WINNIE 1978-03-18 21:00:00 TS -13.3105 86.2179 55 986 bom main 1909 1877 P_____O__PP_P_ SH271978 -13.2925 86.2275 52 0 -13.3000 86.0000 30 55 986 4.00000 -13.2925 86.2925 TC 52 985 -13.2855 86.2672 2 53 -13.4000 86.2925 TC 55 985 5 65
1978075S14084 1978 24 SI MM WINNIE 1978-03-19 00:00:00 TS -13.2167 86.5000 55 985 bom main 1877 1846 O_____O__OO_O_ jtwc_sh SH271978 -13.2000 86.5000 55 0 -13.2000 86.5000 30 55 985 4.00000 4.00000 -13.2000 86.5000 TC 55 985 -13.2000 86.5000 2 55 -13.3000 86.5000 TC 55 985 6 72
1978075S14084 1978 24 SI MM WINNIE 1978-03-19 03:00:00 TS -13.1385 86.7698 55 983 bom main 1846 1830 P_____O__PP_P_ SH271978 -13.1425 86.7925 57 0 -13.1000 86.8000 30 55 983 4.00000 -13.1424 86.7275 TC 57 983 -13.1113 86.7714 2 57 -13.1925 86.7350 TC 57 983 5 77
1978075S14084 1978 24 SI MM WINNIE 1978-03-19 06:00:00 TS -13.0900 87.0450 60 981 bom main 1830 1791 O_____O__OP_O_ jtwc_sh SH271978 -13.1000 87.1000 60 0 -13.1000 87.0000 30 60 981 4.00000 -13.1000 87.0000 TC 60 981 -13.0400 87.0702 2 60 -13.1000 87.0000 TC 60 982 6 79
1978075S14084 1978 24 SI MM WINNIE 1978-03-19 09:00:00 TS -13.0219 87.3699 60 979 bom main 1791 1767 P_____O__PP_P_ SH271978 -13.0350 87.4000 62 0 -13.0000 87.4000 30 60 979 4.00000 -13.0350 87.3426 TC 62 979 -12.9988 87.3839 2 62 -13.0275 87.2925 TC 62 980 6 82
1978075S14084 1978 24 SI MM WINNIE 1978-03-19 12:00:00 TS -13.0000 87.6833 65 977 bom main 1767 1745 O_____O__OO_O_ jtwc_sh SH271978 -13.0000 87.7000 65 1 -13.0000 87.7000 40 65 977 4.50000 -13.0000 87.7000 TC 65 977 -13.0000 87.7000 4 65 -13.0000 87.6000 TC 65 978 6 90
1978075S14084 1978 24 SI MM WINNIE 1978-03-19 15:00:00 TS -13.0207 87.9880 65 975 bom main 1745 1730 P_____O__PP_P_ SH271978 -13.0200 88.0000 67 1 -13.0000 88.0000 40 65 975 4.50000 -13.0199 88.0075 TC 67 975 -13.0366 88.0202 4 68 -13.0275 87.9000 TC 67 976 6 100
1978075S14084 1978 24 SI MM WINNIE 1978-03-19 18:00:00 TS -13.1029 88.2896 70 973 bom main 1730 1716 O_____O__OP_O_ jtwc_sh SH271978 -13.1000 88.3000 70 1 -13.1000 88.3000 40 70 973 4.50000 -13.1000 88.3000 TC 70 973 -13.1176 88.3374 4 72 -13.1000 88.2000 TC 70 974 6 108
1978075S14084 1978 24 SI MM WINNIE 1978-03-19 21:00:00 TS -13.2166 88.6005 70 971 bom main 1716 1709 P_____O__PP_P_ SH271978 -13.2275 88.6150 75 1 -13.2000 88.6000 40 70 971 4.50000 -13.2275 88.6225 TC 72 971 -13.2398 88.6359 4 76 -13.1775 88.5150 TC 72 972 6 116
1978075S14084 1978 24 SI MM WINNIE 1978-03-20 00:00:00 TS -13.3833 88.8833 75 969 bom main 1711 1704 O_____O__OO_O_ jtwc_sh SH271978 -13.4000 88.9000 80 1 -13.4000 88.9000 40 75 969 4.50000 -13.4000 88.9000 TC 75 969 -13.4000 88.9000 4 80 -13.3000 88.8000 TC 75 970 6 127
1978075S14084 1978 24 SI MM WINNIE 1978-03-20 03:00:00 TS -13.5708 89.0880 80 967 bom main 1715 1715 P_____O__PP_P_ SH271978 -13.5850 89.1225 82 1 -13.6000 89.1000 40 80 967 5.00000 5.00000 -13.5849 89.0651 TC 77 966 -13.5848 89.1030 4 82 -13.4849 89.0150 TC 77 967 5 139
1978075S14084 1978 24 SI MM WINNIE 1978-03-20 06:00:00 TS -13.7841 89.2455 80 964 bom main 1725 1718 O_____O__OP_O_ jtwc_sh SH271978 -13.8000 89.3000 85 2 -13.8000 89.2000 40 80 964 5.00000 -13.8000 89.2000 TC 80 964 -13.8047 89.2727 4 85 -13.7000 89.2000 TC 80 965 5 143
1978075S14084 1978 24 SI MM WINNIE 1978-03-20 09:00:00 TS -14.0087 89.4206 85 961 bom main 1729 1729 P_____O__PP_P_ SH271978 -14.0425 89.4501 87 2 -14.0000 89.4000 40 85 961 5.00000 -14.0350 89.3925 TC 82 961 -14.0473 89.4311 4 87 -13.8850 89.4001 TC 82 962 6 144
1978075S14084 1978 24 SI MM WINNIE 1978-03-20 12:00:00 TS -14.2667 89.6000 85 958 bom main 1743 1736 O_____O__OO_O_ jtwc_sh SH271978 -14.3000 89.6000 90 2 -14.3000 89.6000 40 85 958 5.00000 -14.3000 89.6000 TC 85 958 -14.3000 89.6000 4 90 -14.1000 89.6000 TC 85 960 7 146
1978075S14084 1978 24 SI MM WINNIE 1978-03-20 15:00:00 TS -14.5452 89.7935 90 955 bom main 1748 1748 P_____O__PP_P_ SH271978 -14.5500 89.7850 95 2 -14.6000 89.8000 40 90 955 5.50000 -14.6075 89.7925 TC 87 955 -14.5712 89.7983 4 93 -14.3925 89.8000 TC 90 957 7 145
1978075S14084 1978 24 SI WA WINNIE 1978-03-20 18:00:00 TS -14.8241 90.0021 95 952 bom main 1763 1763 O_____O__OP_O_ jtwc_sh SH271978 -14.8000 90.0000 100 3 -14.9000 90.0000 40 95 952 5.50000 -14.9000 90.0000 TC 90 952 -14.8448 90.0123 4 97 -14.7000 90.0000 TC 95 954 7 143
1978075S14084 1978 24 SI WA WINNIE 1978-03-20 21:00:00 TS -15.0918 90.2250 100 949 bom main 1779 1773 P_____O__PP_P_ SH271978 -15.0725 90.2425 102 3 -15.2000 90.2000 40 100 949 6.00000 -15.1300 90.2350 TC 95 948 -15.0961 90.2452 4 101 -14.9799 90.1850 TC 97 950 7 135
1978075S14084 1978 24 SI WA WINNIE 1978-03-21 00:00:00 TS -15.2833 90.4833 100 945 bom main 1780 1775 O_____O__OO_O_ jtwc_sh SH271978 -15.3000 90.5000 105 3 -15.3000 90.5000 40 100 945 6.00000 6.00000 -15.3000 90.5000 TC 100 945 -15.3000 90.5000 4 105 -15.2000 90.4000 TC 100 947 6 122
1978075S14084 1978 24 SI WA WINNIE 1978-03-21 03:00:00 TS -15.4063 90.7517 100 947 bom main 1773 1768 P_____O__PP_P_ SH271978 -15.4299 90.7351 102 3 -15.4000 90.8000 40 100 947 6.00000 -15.4225 90.7925 TC 97 947 -15.4333 90.7624 4 102 -15.3225 90.6851 TC 100 947 6 111
1978075S14084 1978 24 SI WA WINNIE 1978-03-21 06:00:00 TS -15.4862 91.0413 100 950 bom main 1772 1756 O_____O__OP_O_ jtwc_sh SH271978 -15.5000 91.0000 100 3 -15.5000 91.1000 40 100 950 6.00000 -15.5000 91.1000 TC 95 950 -15.5172 91.0478 4 100 -15.4000 91.0000 TC 100 948 6 104
1978075S14084 1978 24 SI WA WINNIE 1978-03-21 09:00:00 TS -15.5462 91.3486 95 953 bom main 1756 1741 P_____O__PP_P_ SH271978 -15.5650 91.3275 97 3 -15.5000 91.4000 40 95 953 5.50000 -15.5649 91.3850 TC 90 953 -15.5676 91.3593 4 97 -15.5149 91.2925 TC 97 951 6 100
1978075S14084 1978 24 SI WA WINNIE 1978-03-21 12:00:00 TS -15.6000 91.6833 90 956 bom main 1741 1720 O_____O__OO_O_ jtwc_sh SH271978 -15.6000 91.7000 95 2 -15.6000 91.7000 40 90 956 5.50000 -15.6000 91.7000 TC 85 956 -15.6000 91.7000 4 95 -15.6000 91.6000 TC 95 954 7 95
1978075S14084 1978 24 SI WA WINNIE 1978-03-21 15:00:00 TS -15.6037 92.0583 90 959 bom main 1713 1691 P_____O__PP_P_ SH271978 -15.6000 92.0926 90 2 -15.6000 92.1000 40 90 959 5.50000 -15.6000 92.0851 TC 82 959 -15.6149 92.0596 4 91 -15.6074 91.9201 TC 90 957 7 90
1978075S14084 1978 24 SI WA WINNIE 1978-03-21 18:00:00 TS -15.6033 92.4581 85 962 bom main 1684 1663 O_____O__OP_O_ jtwc_sh SH271978 -15.6000 92.5000 85 2 -15.6000 92.5000 40 85 962 5.00000 -15.6000 92.5000 TC 80 962 -15.6197 92.4483 4 87 -15.6000 92.3000 TC 85 960 8 93
1978075S14084 1978 24 SI WA WINNIE 1978-03-21 21:00:00 TS -15.6453 92.8609 85 965 bom main 1655 1635 P_____O__PP_P_ SH271978 -15.6272 92.8701 82 1 -15.7000 92.9000 40 85 965 5.00000 -15.6348 92.8850 TC 77 964 -15.6398 92.8629 4 83 -15.6425 92.7775 TC 82 962 8 97
1978075S14084 1978 24 SI WA WINNIE 1978-03-22 00:00:00 TS -15.7000 93.3000 80 967 bom main 1635 1599 O_____O__OO_O_ jtwc_sh SH271978 -15.7000 93.3000 80 1 -15.7000 93.3000 40 80 967 5.00000 5.00000 -15.7000 93.3000 TC 75 967 -15.7000 93.3000 4 80 -15.7000 93.3000 TC 80 965 10 99
1978075S14084 1978 24 SI WA WINNIE 1978-03-22 03:00:00 TS -15.7956 93.8441 80 967 bom main 1599 1556 P_____O__PP_P_ SH271978 -15.8278 93.9074 80 1 -15.8000 93.8000 40 80 967 5.00000 -15.7700 93.7926 TC 75 967 -15.8205 93.8420 4 80 -15.7275 93.8152 TC 80 966 11 102
1978075S14084 1978 24 SI WA WINNIE 1978-03-22 06:00:00 TS -15.9306 94.3819 80 967 bom main 1556 1538 O_____O__OP_O_ jtwc_sh SH271978 -16.0000 94.5000 80 1 -15.9000 94.3000 40 80 967 5.00000 -15.9000 94.3000 TC 75 967 -15.9837 94.3913 4 80 -15.8000 94.3000 TC 80 967 10 108
1978075S14084 1978 24 SI WA WINNIE 1978-03-22 09:00:00 TS -16.1195 94.8520 80 967 bom main 1530 1522 P_____O__PP_P_ SH271978 -16.1774 94.9474 80 1 -16.1000 94.8000 40 80 967 5.00000 -16.1201 94.8023 TC 75 967 -16.1798 94.8700 4 80 -15.9625 94.7449 TC 80 967 9 120
1978075S14084 1978 24 SI WA WINNIE 1978-03-22 12:00:00 TS -16.3667 95.1833 80 967 bom main 1529 1522 O_____O__OO_O_ jtwc_sh SH271978 -16.4000 95.2000 80 1 -16.4000 95.2000 40 80 967 5.00000 -16.4000 95.2000 TC 75 967 -16.4000 95.2000 4 80 -16.2000 95.1000 TC 80 967 8 135
1978075S14084 1978 24 SI WA WINNIE 1978-03-22 15:00:00 TS -16.6640 95.4107 80 967 bom main 1538 1538 P_____O__PP_P_ SH271978 -16.6999 95.2177 80 1 -16.7000 95.9000 40 80 967 5.00000 -16.7073 95.4624 TC 75 967 -16.6847 95.2840 4 80 -16.4924 95.3824 TC 80 967 6 167
1978075S14084 1978 24 SI WA WINNIE 1978-03-22 18:00:00 TS -16.9636 95.3194 80 967 bom main 1569 1569 O_____O__OP_O_ jtwc_sh SH271978 -17.0000 95.1000 80 1 -17.0000 95.5000 40 80 967 5.00000 -17.0000 95.5000 TC 75 967 -16.9819 95.2163 4 80 -16.8000 95.5000 TC 80 967 6 204
1978075S14084 1978 24 SI WA WINNIE 1978-03-22 21:00:00 TS -17.2331 95.1510 80 967 bom main 1592 1592 P_____O__PP_P_ SH271978 -17.2525 95.0001 80 1 -17.3000 95.2000 40 80 967 5.00000 -17.2602 95.2379 TC 75 967 -17.2382 95.0653 4 80 -17.0950 95.4028 TC 80 967 6 220
1978075S14084 1978 24 SI WA WINNIE 1978-03-23 00:00:00 TS -17.3833 94.9500 80 967 bom main 1623 1623 O_____O__OO_O_ jtwc_sh SH271978 -17.4000 94.9000 80 1 -17.4000 94.9000 40 80 967 5.00000 5.00000 -17.4000 94.9000 TC 75 967 -17.4000 94.9000 4 80 -17.3000 95.2000 TC 80 967 3 245
1978075S14084 1978 24 SI WA WINNIE 1978-03-23 03:00:00 TS -17.3678 94.8509 80 968 bom main 1631 1630 P_____O__PP_P_ SH271978 -17.4025 94.8500 77 1 -17.3000 94.8000 40 80 968 5.00000 -17.3449 94.7624 TC 75 968 -17.4047 94.8003 4 78 -17.3525 95.0424 TC 77 967 2 304
1978075S14084 1978 24 SI WA WINNIE 1978-03-23 06:00:00 TS -17.2688 94.7674 80 969 bom main 1630 1630 O_____O__OP_O_ jtwc_sh SH271978 -17.3000 94.8000 75 1 -17.2000 94.7000 40 80 969 5.00000 -17.2000 94.7000 TC 75 969 -17.3125 94.7046 4 76 -17.3000 94.9000 TC 75 968 3 324
1978075S14084 1978 24 SI WA WINNIE 1978-03-23 09:00:00 TS -17.1490 94.6832 75 970 bom main 1622 1622 P_____O__PP_P_ SH271978 -17.1575 94.6849 72 1 -17.1000 94.7000 40 75 970 4.50000 -17.1000 94.6275 TC 72 971 -17.1641 94.6316 4 74 -17.2150 94.7700 TC 75 969 3 330
1978075S14084 1978 24 SI WA WINNIE 1978-03-23 12:00:00 TS -17.0167 94.6167 70 973 bom main 1622 1607 O_____O__OO_O_ jtwc_sh SH271978 -17.0000 94.6000 70 1 -17.0000 94.6000 40 70 973 4.50000 -17.0000 94.6000 TC 70 973 -17.0000 94.6000 4 72 -17.1000 94.7000 TC 75 971 2 354
1978075S14084 1978 24 SI WA WINNIE 1978-03-23 15:00:00 TS -16.9162 94.6565 65 977 bom main 1607 1599 P_____O__PP_P_ SH271978 -16.9000 94.6200 67 1 -16.9000 94.7000 40 65 977 4.50000 -16.9075 94.6275 TC 65 976 -16.8822 94.6442 4 69 -17.0075 94.7275 TC 70 974 2 24
1978075S14084 1978 24 SI WA WINNIE 1978-03-23 18:00:00 TS -16.8096 94.7213 60 979 bom main 1599 1583 O_____O__OP_O_ jtwc_sh SH271978 -16.8000 94.7000 65 1 -16.8000 94.7000 30 60 979 4.00000 -16.8000 94.7000 TC 60 979 -16.7576 94.7277 4 66 -16.9000 94.8000 TC 65 977 3 31
1978075S14084 1978 24 SI WA WINNIE 1978-03-23 21:00:00 TS -16.6778 94.8071 60 980 bom main 1583 1560 P_____O__PP_P_ SH271978 -16.6500 94.8000 62 0 -16.7000 94.8000 30 60 980 4.00000 -16.6725 94.7850 TC 60 980 -16.6291 94.8223 4 63 -16.7650 94.8350 TC 62 978 3 31
1978075S14084 1978 24 SI WA WINNIE 1978-03-24 00:00:00 TS -16.5167 94.9000 60 981 bom main 1560 1537 O_____O__OO_O_ jtwc_sh SH271978 -16.5000 94.9000 60 0 -16.5000 94.9000 30 60 981 4.00000 -16.5000 94.9000 TC 60 981 -16.5000 94.9000 2 60 -16.6000 94.9000 TC 60 980 4 32
1978075S14084 1978 24 SI WA WINNIE 1978-03-24 03:00:00 TS -16.3390 95.0280 60 981 bom main 1537 1522 P_____O__PP_P_ SH271978 -16.4000 94.9725 60 0 -16.3000 95.1000 30 60 981 4.00000 4.00000 -16.2275 95.0877 TC 60 981 -16.3139 94.9701 2 60 -16.3926 95.0651 TC 60 980 4 28
1978075S14084 1978 24 SI WA WINNIE 1978-03-24 06:00:00 TS -16.1562 95.1020 60 981 bom main 1522 1507 O_____O__OP_O_ jtwc_sh SH271978 -16.3000 95.0000 60 0 -16.0000 95.2000 30 60 981 4.00000 -16.0000 95.2000 TC 60 981 -16.1372 95.0120 2 60 -16.2000 95.2000 TC 60 981 3 7
1978075S14084 1978 24 SI WA WINNIE 1978-03-24 09:00:00 TS -16.0036 95.0717 60 981 bom main 1507 1507 P_____O__PP_P_ SH271978 -16.1124 95.0024 60 0 -15.8000 95.1000 30 60 981 4.00000 -15.9324 95.1173 TC 60 981 -16.0169 94.9979 2 60 -16.0474 95.2099 TC 60 981 2 313
1978075S14084 1978 24 SI WA WINNIE 1978-03-24 12:00:00 TS -16.0000 94.9333 60 981 bom main 1523 1523 O_____O__OO_O_ jtwc_sh SH271978 -16.0000 94.9000 60 0 -16.0000 94.9000 30 60 981 4.00000 -16.0000 94.9000 TC 60 981 -16.0000 94.9000 2 60 -16.0000 95.1000 TC 60 981 4 252
1978075S14084 1978 24 SI WA WINNIE 1978-03-24 15:00:00 TS -16.1249 94.6779 60 982 bom main 1546 1546 P_____O__PP_P_ SH271978 -16.0751 94.6375 57 0 -16.2000 94.6000 30 60 982 4.00000 -16.1550 94.6225 TC 57 982 -16.1465 94.6827 2 58 -16.0975 94.8875 TC 60 981 7 237
1978075S14084 1978 24 SI WA WINNIE 1978-03-24 18:00:00 TS -16.3492 94.3639 60 983 bom main 1585 1585 O_____O__OP_O_ jtwc_sh SH271978 -16.3000 94.3000 55 0 -16.4000 94.3000 30 60 983 4.00000 -16.4000 94.3000 TC 55 983 -16.3954 94.3833 2 57 -16.3000 94.6000 TC 60 982 8 229
1978075S14084 1978 24 SI WA WINNIE 1978-03-24 21:00:00 TS -16.6490 94.0533 60 983 bom main 1631 1631 P_____O__PP_P_ SH271978 -16.6350 93.9926 55 0 -16.7000 94.0000 30 60 983 4.00000 -16.6925 93.9925 TC 55 983 -16.6965 94.0421 2 56 -16.5350 94.3000 TC 57 982 9 224
1978075S14084 1978 24 SI WA WINNIE 1978-03-25 00:00:00 TS -16.9667 93.7500 60 983 bom main 1685 1685 O_____O__OO_O_ jtwc_sh SH271978 -17.0000 93.7000 55 0 -17.0000 93.7000 30 60 983 4.00000 -17.0000 93.7000 TC 55 983 -17.0000 93.7000 2 55 -16.8000 94.0000 TC 55 983 8 222
1978075S14084 1978 24 SI WA WINNIE 1978-03-25 03:00:00 TS -17.2333 93.5035 60 983 bom main 1724 1724 P_____O__PP_P_ SH271978 -17.2724 93.4498 55 0 -17.3000 93.5000 30 60 983 4.00000 4.00000 -17.2649 93.4499 TC 55 983 -17.2401 93.4216 2 55 -17.0499 93.7499 TC 55 983 7 224
1978075S14084 1978 24 SI WA WINNIE 1978-03-25 06:00:00 TS -17.4620 93.2416 60 983 bom main 1770 1770 O_____O__OP_O_ jtwc_sh SH271978 -17.5000 93.2000 55 0 -17.5000 93.2000 30 60 983 4.00000 -17.5000 93.2000 TC 55 983 -17.4722 93.1497 2 55 -17.3000 93.5000 TC 55 983 7 230
1978075S14084 1978 24 SI WA WINNIE 1978-03-25 09:00:00 TS -17.6789 92.9513 60 983 bom main 1800 1800 P_____O__PP_P_ SH271978 -17.7075 92.9074 55 0 -17.7000 92.9000 30 60 983 4.00000 -17.7075 92.9074 TC 55 983 -17.6932 92.8779 2 55 -17.5575 93.2075 TC 55 983 7 233
1978075S14084 1978 24 SI WA WINNIE 1978-03-25 12:00:00 TS -17.8833 92.6500 55 984 bom main 1839 1839 O_____O__OO_O_ jtwc_sh SH271978 -17.9000 92.6000 55 0 -17.9000 92.6000 30 55 984 4.00000 -17.9000 92.6000 TC 55 984 -17.9000 92.6000 2 55 -17.8000 92.9000 TC 55 983 7 234
1978075S14084 1978 24 SI WA WINNIE 1978-03-25 15:00:00 TS -18.0836 92.3563 55 985 bom main 1878 1878 P_____O__PP_P_ SH271978 -18.1075 92.3000 55 0 -18.1000 92.3000 30 55 985 4.00000 -18.1075 92.3000 TC 55 984 -18.0646 92.3307 2 55 -18.0149 92.6074 TC 55 983 7 235
1978075S14084 1978 24 SI WA WINNIE 1978-03-25 18:00:00 TS -18.2699 92.0585 55 985 bom main 1916 1916 O_____O__OP_O_ jtwc_sh SH271978 -18.3000 92.0000 55 0 -18.3000 92.0000 30 55 985 4.00000 -18.3000 92.0000 TC 55 985 -18.2194 92.0512 2 55 -18.2000 92.3000 TC 55 984 7 239
1978075S14084 1978 24 SI WA WINNIE 1978-03-25 21:00:00 TS -18.4252 91.7679 55 985 bom main 1948 1948 P_____O__PP_P_ SH271978 -18.4348 91.7297 55 0 -18.5000 91.7000 30 55 985 4.00000 -18.4423 91.7297 TC 55 985 -18.3895 91.7461 2 55 -18.3499 91.9723 TC 55 984 7 242
1978075S14084 1978 24 SI WA WINNIE 1978-03-26 00:00:00 TS -18.5833 91.4333 55 985 bom main 1994 1994 O_____O__OO_O_ jtwc_sh SH271978 -18.6000 91.4000 55 0 -18.6000 91.4000 30 55 985 4.00000 -18.6000 91.4000 TC 55 985 -18.6000 91.4000 2 55 -18.5000 91.6000 TC 55 985 9 243
1978075S14084 1978 24 SI WA WINNIE 1978-03-26 03:00:00 TS -18.8136 90.9573 55 985 bom main 2041 2041 P_____O__PP_P_ SH271978 -18.8702 90.9151 55 0 -18.8000 90.9000 30 55 985 4.00000 4.00000 -18.8127 90.9150 TC 55 985 -18.8584 90.9411 2 54 -18.6700 91.1573 TC 55 985 11 240
1978075S14084 1978 24 SI WA WINNIE 1978-03-26 06:00:00 TS -19.1102 90.4581 55 985 bom main 2103 2103 O_____O__OP_O_ jtwc_sh SH271978 -19.2000 90.4000 55 0 -19.1000 90.4000 30 55 985 4.00000 -19.1000 90.4000 TC 55 985 -19.1613 90.4487 2 54 -18.9000 90.7000 TC 55 985 11 234
1978075S14084 1978 24 SI WA WINNIE 1978-03-26 09:00:00 TS -19.4577 90.0145 55 985 bom main 2172 2172 P_____O__PP_P_ SH271978 -19.5275 89.9475 55 0 -19.5000 90.0000 30 55 985 4.00000 -19.4700 89.9476 TC 52 985 -19.5084 89.9818 2 53 -19.2125 90.2626 TC 55 985 11 226
1978075S14084 1978 24 SI MM WINNIE 1978-03-26 12:00:00 TS -19.8500 89.6500 55 986 bom main 2218 2233 O_____O__OO_O_ jtwc_sh SH271978 -19.9000 89.6000 55 0 -19.9000 89.6000 30 55 986 4.00000 -19.9000 89.6000 TC 50 986 -19.9000 89.6000 2 53 -19.6000 89.9000 TC 55 985 10 214
1978075S14084 1978 24 SI MM WINNIE 1978-03-26 15:00:00 TS -20.2700 89.4429 55 987 bom main 2277 2277 P_____O__PP_P_ SH271978 -20.3274 89.4047 52 0 -20.3000 89.4000 30 55 987 4.00000 -20.3349 89.4047 TC 50 987 -20.3108 89.3883 2 52 -20.0199 89.6548 TC 52 986 9 199
1978075S14084 1978 24 SI MM WINNIE 1978-03-26 18:00:00 TS -20.7444 89.3276 50 988 bom main 2314 2314 O_____O__OP_O_ jtwc_sh SH271978 -20.8000 89.3000 50 0 -20.8000 89.3000 30 50 988 3.50000 -20.8000 89.3000 TC 50 988 -20.7667 89.2655 2 51 -20.5000 89.5000 TC 50 987 10 192
1978075S14084 1978 24 SI MM WINNIE 1978-03-26 21:00:00 TS -21.2398 89.2294 50 988 bom main 2358 2358 P_____O__PP_P_ SH271978 -21.2775 89.1998 50 0 -21.3000 89.2000 30 50 988 3.50000 -21.2850 89.1998 TC 50 988 -21.2642 89.1851 2 50 -21.0349 89.3922 TC 50 987 10 190
1978075S14084 1978 24 SI MM WINNIE 1978-03-27 00:00:00 TS -21.7667 89.1333 50 988 bom main 2410 2410 O_____O__OO_O_ jtwc_sh SH271978 -21.8000 89.1000 50 0 -21.8000 89.1000 30 50 988 3.50000 -21.8000 89.1000 TC 50 988 -21.8000 89.1000 2 50 -21.6000 89.3000 TC 50 988 11 191
1978075S14084 1978 24 SI MM WINNIE 1978-03-27 03:00:00 TS -22.3134 89.0017 50 989 bom main 2455 2455 P_____O__PP_P_ SH271978 -22.3850 88.9649 50 0 -22.3000 89.0000 30 50 989 3.50000 3.50000 -22.3275 88.9648 TC 47 989 -22.3478 88.9509 2 48 -22.1350 89.1648 TC 50 988 12 194
1978075S14084 1978 24 SI MM WINNIE 1978-03-27 06:00:00 TS -22.9054 88.8311 50 990 bom main 2499 2491 O_____O__OP_O_ jtwc_sh SH271978 -23.0000 88.8000 50 0 -22.9000 88.8000 30 50 990 3.50000 -22.9000 88.8000 TC 45 990 -22.9325 88.7864 2 47 -22.7000 89.0000 TC 50 989 13 195
1978075S14084 1978 24 SI MM WINNIE 1978-03-27 09:00:00 TS -23.5164 88.6426 50 990 bom main 2504 2497 P_____O__PP_P_ SH271978 -23.5925 88.6148 47 0 -23.5000 88.6000 30 50 990 3.50000 -23.5275 88.6148 TC 45 990 -23.5509 88.6037 2 46 -23.3350 88.8075 TC 47 989 13 196
1978075S14084 1978 24 SI MM WINNIE 1978-03-27 12:00:00 TS -24.1667 88.4333 50 990 bom main 2509 2505 O_____O__OO_O_ jtwc_sh SH271978 -24.2000 88.4000 45 0 -24.2000 88.4000 30 50 990 3.50000 -24.2000 88.4000 TC 45 990 -24.2000 88.4000 2 45 -24.0000 88.6000 TC 45 990 14 197
1978075S14084 1978 24 SI MM WINNIE 1978-03-27 15:00:00 TS -24.8142 88.2043 50 991 bom main 2517 2515 P_____O__PP_P_ SH271978 -24.8275 88.1573 45 0 -24.9000 88.2000 30 50 991 3.50000 -24.8924 88.1795 TC 45 991 -24.8029 88.1245 2 43 -24.6349 88.4071 TC 45 990 14 199
1978075S14084 1978 24 SI MM WINNIE 1978-03-27 18:00:00 TS -25.4906 87.9392 50 992 bom main 2536 2533 O_____O__OP_O_ jtwc_sh SH271978 -25.5000 87.9000 45 0 -25.6000 87.9000 30 50 992 3.50000 -25.6000 87.9000 TC 45 992 -25.4436 87.8354 2 42 -25.3000 88.2000 TC 45 991 15 200
1978075S14084 1978 24 SI MM WINNIE 1978-03-27 21:00:00 TS -26.1888 87.6387 50 993 bom main 2556 2554 P_____O__PP_P_ SH271978 -26.1976 87.6203 42 0 -26.3000 87.6000 30 50 993 3.50000 -26.2629 87.4634 TC 42 993 -26.1623 87.5784 2 41 -26.0126 87.9499 TC 42 992 16 200
1978075S14084 1978 24 SI MM WINNIE 1978-03-28 00:00:00 TS -26.9667 87.3500 50 994 bom main 2568 2572 O_____O__OO_O_ jtwc_sh SH271978 -27.0000 87.4000 40 0 -27.0000 87.1000 30 50 994 3.50000 -27.0000 87.1000 TC 40 994 -27.0000 87.4000 2 40 -26.8000 87.7000 TC 40 993 17 192
1978075S14084 1978 24 SI MM WINNIE 1978-03-28 03:00:00 TS -27.8615 87.2552 50 994 bom main 2572 2572 P_____O__PP_P_ SH271978 -27.9250 87.2903 40 0 -27.9000 87.2000 30 50 994 3.50000 3.50000 -27.8598 87.0026 TC 40 994 -27.9340 87.2995 2 38 -27.6251 87.4483 TC 40 993 20 183
1978075S14084 1978 24 SI MM WINNIE 1978-03-28 06:00:00 TS -28.9122 87.2290 45 995 bom main 2580 2552 O_____O__OP_O_ jtwc_sh SH271978 -29.0000 87.3000 40 0 -28.9000 87.1000 30 45 995 3.00000 -28.9000 87.1000 TC 40 995 -28.9954 87.2915 2 37 -28.6000 87.3000 TC 40 994 23 178
1978075S14084 1978 24 SI MM WINNIE 1978-03-28 09:00:00 TS -30.1201 87.3496 35 996 bom main 2543 2431 P_____O__PP_P_ SH271978 -30.1825 87.3908 37 0 -30.1000 87.3000 30 35 996 3.00000 -30.1175 87.2833 TC 37 996 -30.1840 87.3873 2 36 -29.7875 87.3407 TC 37 995 26 173
1978075S14084 1978 24 SI MM WINNIE 1978-03-28 12:00:00 TS -31.4810 87.5952 35 997 bom main 2422 2305 O_____O__OO_O_ jtwc_sh SH271978 -31.5000 87.6000 35 0 -31.5000 87.6000 30 35 997 3.00000 -31.5000 87.6000 TC 35 997 -31.5000 87.6000 2 35 -31.1000 87.5000 TC 35 996 29 170
1978075S14084 1978 24 SI MM WINNIE 1978-03-28 15:00:00 TS -32.9348 87.9441 30 999 bom main 2305 2194 P_____O__PP___ SH271978 -32.8899 87.8847 32 -1 -33.0000 88.0000 20 30 999 2.50000 -32.9552 88.0130 TC 32 999 -32.9390 87.9381 2 32 TC 31 167
1978075S14084 1978 24 SI MM WINNIE 1978-03-28 18:00:00 TS -34.4549 88.3969 30 1001 bom main 2185 2081 O_____O__OP___ jtwc_sh SH271978 -34.4000 88.3000 30 -1 -34.5000 88.5000 20 30 1001 2.50000 -34.5000 88.5000 TC 30 1001 -34.4744 88.3846 2 30 32 165
1978075S14084 1978 24 SI MM WINNIE 1978-03-28 21:00:00 TS -36.0609 88.9435 25 1002 bom main 2073 1984 P_____O__PP___ SH271978 -36.0207 88.8533 27 -1 -36.1000 89.1000 20 25 1002 2.00000 -36.0901 88.9963 TC 27 1002 -36.0730 88.9144 2 27 34 165
1978075S14084 1978 24 SI MM WINNIE 1978-03-29 00:00:00 TS -37.7000 89.5000 25 1003 bom main 1976 O_____O__OO___ jtwc_sh SH271978 -37.7000 89.5000 25 -1 -37.7000 89.5000 20 25 1003 1.50000 2.00000 -37.7000 89.5000 TC 25 1003 -37.7000 89.5000 1 25 34 165

IBTrACS Databaseについて

本データベースは、米国NOAAが公開する1842年以降の世界の熱帯低気圧のベストトラックデータアーカイブInternational Best Track Archive for Climate Stewardship (IBTrACS)を、ウェブで閲覧しやすい形式に変換したものです。

最終更新日:2021-12-08